Conway, Washington
Current Conditions -  °F | °C
As of 4:56 AM on Saturday 25 Oct 2014 (Local Time) from KNUW Reporting Station
Broken Clouds Broken Clouds  
Wind Chill: 53°   Ceiling: 20000
Heat Index: 53°   Visibility: 10mi
Dew Point: 46°   Wind: 7mph
Humidity: 77%   Direction: 60°ENE
Pressure: 29.55"   Gusts: NA
Location:  48.34°N, 122.35°W
Report Text: KNUW 251156Z 06006KT 10SM FEW030 SCT095 BKN200 12/08 A2955 RMK AO2 SLP009 60008 70013 T01170078 10117 20111 58052 $
Loading
Personal Weather Stations






























Interactive Weather Map
Tropical Storm Tracking
New forecast layout! Learn more

10-Day Weather Forecast

Advertisements
Track Severe Weather on mobile